Terminal Aerodrome Forecast
Issued by NWS

Home | Current Version | Previous Version | Text Only | Print | Product List | Glossary On
Versions: 1 2 3 4 5 6 7 8 9 10 11 12 13 14
125
FTUS45 KREV 251734
TAFMMH
TAF
KMMH 251734Z 2518/2618 13008G18KT P6SM SCT120
     FM251900 26007KT P6SM SCT120 BKN180
     FM260000 28008KT P6SM VCSH BKN040 OVC060
     FM260800 VRB03KT P6SM SCT060 BKN150=

USA.gov is the U.S. government's official web portal to all federal, state and local government web resources and services.